Time;durP1;ratioP1;P1;durP2;ratioP2;P2;SDS_P1;SDS_P2;PMS_P1;PMS_P2;Temp;Humidity;BMP_temperature;BMP_pressure;BME280_temperature;BME280_humidity;BME280_pressure;Samples;Min_cycle;Max_cycle;Signal;HPM_P1;HPM_P2
2021/08/14 00:01:46;;;;;;;;;4.67;4.33;;;;;;;;5079822;28;45845;-85
2021/08/14 00:04:12;;;;;;;;;4.00;4.00;;;;;;;;5064699;28;46172;-84
2021/08/14 00:06:37;;;;;;;;;7.67;6.00;;;;;;;;5078327;28;45371;-85
2021/08/14 00:09:03;;;;;;;;;4.33;4.00;;;;;;;;5078696;28;45486;-85
2021/08/14 00:11:28;;;;;;;;;6.75;3.00;;;;;;;;5074404;28;45474;-84
2021/08/14 00:13:53;;;;;;;;;7.00;3.25;;;;;;;;5072274;28;45947;-84
2021/08/14 00:16:19;;;;;;;;;5.67;3.33;;;;;;;;5079813;28;45408;-84
2021/08/14 00:18:44;;;;;;;;;6.25;3.00;;;;;;;;5078080;28;45299;-84
2021/08/14 00:21:09;;;;;;;;;7.67;4.67;;;;;;;;5076431;28;45914;-85
2021/08/14 00:23:34;;;;;;;;;9.33;3.33;;;;;;;;5078306;28;47095;-84
2021/08/14 00:26:00;;;;;;;;;6.00;3.50;;;;;;;;5079381;28;45385;-85
2021/08/14 00:28:25;;;;;;;;;5.50;4.00;;;;;;;;5081510;28;45319;-84
2021/08/14 00:30:50;;;;;;;;;5.00;3.67;;;;;;;;5083283;28;45236;-85
2021/08/14 00:33:15;;;;;;;;;4.25;3.50;;;;;;;;5075848;28;45909;-83
2021/08/14 00:35:41;;;;;;;;;6.00;4.00;;;;;;;;5062095;28;45277;-84
2021/08/14 00:38:06;;;;;;;;;6.75;5.25;;;;;;;;5070118;28;45428;-85
2021/08/14 00:40:31;;;;;;;;;4.00;4.00;;;;;;;;5080648;28;45376;-84
2021/08/14 00:42:56;;;;;;;;;6.00;4.00;;;;;;;;5081622;28;47682;-84
2021/08/14 00:45:22;;;;;;;;;5.00;4.00;;;;;;;;5081461;28;45886;-85
2021/08/14 00:47:47;;;;;;;;;4.67;4.67;;;;;;;;5082968;28;45401;-85
2021/08/14 00:50:12;;;;;;;;;6.75;4.00;;;;;;;;5078680;28;45264;-84
2021/08/14 00:52:38;;;;;;;;;6.75;3.50;;;;;;;;5083023;28;46513;-84
2021/08/14 00:55:03;;;;;;;;;5.75;4.00;;;;;;;;5081119;28;45772;-84
2021/08/14 00:57:28;;;;;;;;;6.00;3.50;;;;;;;;5082763;28;45419;-84
2021/08/14 00:59:54;;;;;;;;;7.50;4.50;;;;;;;;5081849;27;45218;-85
2021/08/14 01:02:19;;;;;;;;;6.00;4.25;;;;;;;;5070704;28;45461;-84
2021/08/14 01:04:49;;;;;;;;;6.50;4.25;;;;;;;;5081901;28;45600;-84
2021/08/14 01:07:15;;;;;;;;;5.00;4.00;;;;;;;;5072359;28;45418;-84
2021/08/14 01:09:40;;;;;;;;;5.00;4.00;;;;;;;;5081890;28;45210;-84
2021/08/14 01:12:06;;;;;;;;;3.67;3.00;;;;;;;;5082764;28;45402;-84
2021/08/14 01:14:31;;;;;;;;;5.25;5.00;;;;;;;;5081690;28;45279;-84
2021/08/14 01:16:57;;;;;;;;;6.00;3.75;;;;;;;;5085317;28;45288;-84
2021/08/14 01:19:22;;;;;;;;;4.25;4.00;;;;;;;;5085701;28;45385;-84
2021/08/14 01:21:49;;;;;;;;;7.25;5.00;;;;;;;;5074988;28;46526;-84
2021/08/14 01:24:14;;;;;;;;;5.25;4.25;;;;;;;;5075918;28;45213;-83
2021/08/14 01:26:42;;;;;;;;;5.00;4.00;;;;;;;;5073479;28;45379;-84
2021/08/14 01:29:08;;;;;;;;;9.25;3.25;;;;;;;;5086198;28;45286;-84
2021/08/14 01:31:33;;;;;;;;;6.00;3.25;;;;;;;;5103472;28;44928;-84
2021/08/14 01:33:58;;;;;;;;;6.00;5.00;;;;;;;;5082861;28;46247;-84
2021/08/14 01:36:23;;;;;;;;;6.00;4.25;;;;;;;;5062592;28;45305;-83
2021/08/14 01:38:53;;;;;;;;;5.25;4.00;;;;;;;;5062961;28;45652;-84
2021/08/14 01:41:19;;;;;;;;;4.75;3.00;;;;;;;;5082154;28;45996;-84
2021/08/14 01:43:58;;;;;;;;;6.75;4.00;;;;;;;;5082419;28;45586;-83
2021/08/14 01:46:24;;;;;;;;;5.00;3.75;;;;;;;;5081983;28;45415;-84
2021/08/14 01:48:49;;;;;;;;;4.00;3.00;;;;;;;;5081927;28;45725;-84
2021/08/14 01:51:15;;;;;;;;;7.00;4.25;;;;;;;;5067917;27;45295;-84
2021/08/14 01:53:50;;;;;;;;;4.50;2.50;;;;;;;;5081490;28;45338;-84
2021/08/14 01:56:16;;;;;;;;;7.50;5.00;;;;;;;;5081272;28;45436;-84
2021/08/14 01:58:42;;;;;;;;;4.75;3.25;;;;;;;;5081836;28;45250;-84
2021/08/14 02:01:07;;;;;;;;;4.25;3.25;;;;;;;;5082902;28;45940;-84
2021/08/14 02:03:32;;;;;;;;;6.00;4.50;;;;;;;;5085828;28;45218;-84
2021/08/14 02:05:57;;;;;;;;;3.67;3.00;;;;;;;;5083725;28;45612;-83
2021/08/14 02:08:23;;;;;;;;;5.33;3.00;;;;;;;;5080448;28;45627;-84
2021/08/14 02:10:48;;;;;;;;;5.67;3.00;;;;;;;;5081252;28;46104;-83
2021/08/14 02:13:13;;;;;;;;;6.67;3.33;;;;;;;;5080422;28;45484;-84
2021/08/14 02:15:38;;;;;;;;;6.00;3.00;;;;;;;;5081547;28;45296;-84
2021/08/14 02:18:03;;;;;;;;;5.33;3.33;;;;;;;;5081470;28;45207;-84
2021/08/14 02:20:29;;;;;;;;;5.67;5.00;;;;;;;;5081314;28;45349;-84
2021/08/14 02:22:54;;;;;;;;;3.00;3.00;;;;;;;;5081681;28;45302;-84
2021/08/14 02:25:19;;;;;;;;;3.67;3.67;;;;;;;;5081162;28;45452;-84
2021/08/14 02:27:44;;;;;;;;;6.75;4.00;;;;;;;;5079844;28;45423;-84
2021/08/14 02:30:10;;;;;;;;;6.67;3.00;;;;;;;;5081121;28;45519;-84
2021/08/14 02:32:35;;;;;;;;;4.75;4.00;;;;;;;;5081073;28;45382;-84
2021/08/14 02:35:00;;;;;;;;;4.00;3.75;;;;;;;;5081269;28;45360;-84
2021/08/14 02:37:25;;;;;;;;;6.33;3.67;;;;;;;;5081394;28;45377;-84
2021/08/14 02:39:50;;;;;;;;;6.00;4.00;;;;;;;;5068486;27;47099;-84
2021/08/14 02:42:16;;;;;;;;;7.00;4.67;;;;;;;;5071827;28;45410;-84
2021/08/14 02:44:41;;;;;;;;;3.50;3.25;;;;;;;;5076973;28;45420;-84
2021/08/14 02:47:06;;;;;;;;;4.00;3.00;;;;;;;;5081528;28;45446;-84
2021/08/14 02:49:31;;;;;;;;;5.50;4.00;;;;;;;;5090462;28;47829;-83
2021/08/14 02:51:57;;;;;;;;;3.75;3.75;;;;;;;;5078656;28;45390;-84
2021/08/14 02:54:22;;;;;;;;;6.33;4.00;;;;;;;;5061098;28;45301;-84
2021/08/14 02:56:47;;;;;;;;;7.00;4.00;;;;;;;;5073243;28;45327;-84
2021/08/14 02:59:12;;;;;;;;;6.00;3.00;;;;;;;;5070003;28;48488;-84
2021/08/14 03:01:37;;;;;;;;;3.00;3.00;;;;;;;;5081075;28;45384;-84
2021/08/14 03:04:03;;;;;;;;;8.50;5.25;;;;;;;;5080537;28;45353;-84
2021/08/14 03:06:28;;;;;;;;;4.00;3.00;;;;;;;;5079439;28;45718;-84
2021/08/14 03:08:54;;;;;;;;;3.33;3.00;;;;;;;;5079118;28;47190;-84
2021/08/14 03:11:19;;;;;;;;;7.25;4.25;;;;;;;;5080599;28;45473;-84
2021/08/14 03:13:45;;;;;;;;;4.75;4.00;;;;;;;;5080484;28;45310;-84
2021/08/14 03:16:10;;;;;;;;;3.00;3.00;;;;;;;;5076432;28;45452;-84
2021/08/14 03:18:35;;;;;;;;;6.75;3.75;;;;;;;;5076286;28;47247;-84
2021/08/14 03:21:00;;;;;;;;;5.67;4.00;;;;;;;;5060396;28;45299;-84
2021/08/14 03:23:25;;;;;;;;;4.75;3.75;;;;;;;;5076731;28;45384;-84
2021/08/14 03:25:51;;;;;;;;;9.00;4.00;;;;;;;;5058572;28;45656;-85
2021/08/14 03:28:16;;;;;;;;;4.50;3.75;;;;;;;;5070588;27;46232;-85
2021/08/14 03:30:41;;;;;;;;;7.00;3.00;;;;;;;;5080137;28;45237;-85
2021/08/14 03:33:06;;;;;;;;;6.33;4.00;;;;;;;;5069617;28;45422;-85
2021/08/14 03:35:32;;;;;;;;;6.25;2.50;;;;;;;;5081667;28;45378;-84
2021/08/14 03:37:57;;;;;;;;;6.00;3.33;;;;;;;;5080279;28;46084;-84
2021/08/14 03:40:22;;;;;;;;;7.00;4.00;;;;;;;;5080942;28;45217;-85
2021/08/14 03:42:47;;;;;;;;;4.00;4.00;;;;;;;;5076904;28;45212;-82
2021/08/14 03:45:13;;;;;;;;;7.00;4.00;;;;;;;;5080138;28;45390;-84
2021/08/14 03:47:38;;;;;;;;;2.25;2.25;;;;;;;;5065077;28;47502;-86
2021/08/14 03:50:06;;;;;;;;;5.00;4.00;;;;;;;;5080313;28;45544;-83
2021/08/14 03:52:31;;;;;;;;;6.00;3.75;;;;;;;;5076058;28;45523;-83
2021/08/14 03:54:56;;;;;;;;;6.75;4.50;;;;;;;;5079907;28;45305;-81
2021/08/14 03:57:21;;;;;;;;;6.67;5.00;;;;;;;;5077676;28;46094;-84
2021/08/14 03:59:47;;;;;;;;;7.75;4.25;;;;;;;;5080118;28;45487;-84
2021/08/14 04:02:12;;;;;;;;;7.00;5.00;;;;;;;;5074542;28;45327;-83
2021/08/14 04:04:37;;;;;;;;;5.50;4.25;;;;;;;;5071913;28;45316;-85
2021/08/14 04:07:02;;;;;;;;;6.00;4.67;;;;;;;;5078678;28;48514;-86
2021/08/14 04:09:28;;;;;;;;;4.00;3.75;;;;;;;;5074810;28;46171;-84
2021/08/14 04:11:53;;;;;;;;;6.33;5.00;;;;;;;;5078781;28;45426;-86
2021/08/14 04:14:18;;;;;;;;;6.00;3.33;;;;;;;;5075444;28;45215;-83
2021/08/14 04:16:43;;;;;;;;;6.67;4.67;;;;;;;;5082699;28;45512;-84
2021/08/14 04:19:08;;;;;;;;;5.67;4.00;;;;;;;;5080793;28;45456;-84
2021/08/14 04:21:34;;;;;;;;;4.75;3.00;;;;;;;;5082827;28;44785;-83
2021/08/14 04:23:59;;;;;;;;;6.75;3.75;;;;;;;;5093025;28;44651;-83
2021/08/14 04:26:28;;;;;;;;;9.00;4.75;;;;;;;;5074255;28;45394;-84
2021/08/14 04:28:54;;;;;;;;;4.00;4.00;;;;;;;;5082898;28;45255;-84
2021/08/14 04:31:19;;;;;;;;;6.00;4.50;;;;;;;;5078270;27;45621;-82
2021/08/14 04:33:44;;;;;;;;;9.33;5.00;;;;;;;;5076491;28;45412;-82
2021/08/14 04:36:09;;;;;;;;;7.67;4.33;;;;;;;;5079245;28;45356;-82
2021/08/14 04:38:35;;;;;;;;;3.33;3.00;;;;;;;;5082285;28;45524;-81
2021/08/14 04:41:00;;;;;;;;;8.75;3.00;;;;;;;;5082733;28;45432;-82
2021/08/14 04:43:25;;;;;;;;;9.25;5.25;;;;;;;;5083300;28;46040;-82
2021/08/14 04:45:50;;;;;;;;;5.00;4.00;;;;;;;;5076860;28;48485;-83
2021/08/14 04:48:15;;;;;;;;;5.50;4.50;;;;;;;;5062165;28;45420;-82
2021/08/14 04:50:41;;;;;;;;;9.00;5.33;;;;;;;;5062603;28;45398;-82
2021/08/14 04:53:06;;;;;;;;;7.75;5.25;;;;;;;;5062687;28;45330;-83
2021/08/14 04:55:31;;;;;;;;;5.75;5.75;;;;;;;;5064553;28;45593;-84
2021/08/14 04:57:56;;;;;;;;;6.00;4.00;;;;;;;;5081925;28;45412;-83
2021/08/14 05:00:22;;;;;;;;;6.00;3.00;;;;;;;;5082291;28;45393;-83
2021/08/14 05:02:47;;;;;;;;;9.00;6.00;;;;;;;;5081835;28;45413;-83
2021/08/14 05:05:12;;;;;;;;;6.00;5.00;;;;;;;;5083031;28;46316;-83
2021/08/14 05:07:37;;;;;;;;;7.50;5.00;;;;;;;;5082955;28;45317;-83
2021/08/14 05:10:03;;;;;;;;;6.00;4.67;;;;;;;;5084840;28;45605;-83
2021/08/14 05:12:29;;;;;;;;;11.25;5.00;;;;;;;;5084662;28;45326;-83
2021/08/14 05:14:54;;;;;;;;;7.00;3.25;;;;;;;;5081182;28;47977;-83
2021/08/14 05:17:19;;;;;;;;;4.75;4.75;;;;;;;;5082464;28;45416;-83
2021/08/14 05:19:44;;;;;;;;;6.00;4.00;;;;;;;;5082657;28;45533;-83
2021/08/14 05:22:09;;;;;;;;;6.00;3.67;;;;;;;;5082632;28;45454;-82
2021/08/14 05:24:35;;;;;;;;;5.00;4.25;;;;;;;;5080771;28;47390;-83
2021/08/14 05:27:00;;;;;;;;;6.67;4.67;;;;;;;;5081227;28;45298;-82
2021/08/14 05:29:25;;;;;;;;;7.50;4.75;;;;;;;;5082409;28;45263;-82
2021/08/14 05:31:50;;;;;;;;;3.75;3.00;;;;;;;;5082445;28;45227;-83
2021/08/14 05:34:16;;;;;;;;;5.50;3.50;;;;;;;;5080926;28;46422;-82
2021/08/14 05:36:41;;;;;;;;;4.00;4.00;;;;;;;;5070225;28;45226;-83
2021/08/14 05:39:06;;;;;;;;;6.33;4.33;;;;;;;;5062034;28;45537;-82
2021/08/14 05:41:32;;;;;;;;;9.67;5.00;;;;;;;;5061026;28;45460;-83
2021/08/14 05:43:58;;;;;;;;;6.50;5.00;;;;;;;;5061738;28;46297;-83
2021/08/14 05:46:23;;;;;;;;;5.50;4.00;;;;;;;;5060594;28;45244;-83
2021/08/14 05:48:48;;;;;;;;;5.25;5.00;;;;;;;;5062786;28;45540;-83
2021/08/14 05:51:14;;;;;;;;;7.67;4.33;;;;;;;;5062130;28;45406;-82
2021/08/14 05:53:39;;;;;;;;;7.00;5.75;;;;;;;;5061501;28;45977;-82
2021/08/14 05:56:04;;;;;;;;;8.67;5.00;;;;;;;;5069418;28;45297;-82
2021/08/14 05:58:30;;;;;;;;;8.25;5.00;;;;;;;;5083720;27;45260;-82
2021/08/14 06:00:55;;;;;;;;;4.33;3.00;;;;;;;;5081814;28;45521;-82
2021/08/14 06:03:20;;;;;;;;;7.67;6.00;;;;;;;;5082036;28;46250;-83
2021/08/14 06:05:45;;;;;;;;;9.67;4.00;;;;;;;;5083096;28;45348;-83
2021/08/14 06:08:11;;;;;;;;;6.00;4.00;;;;;;;;5082841;28;45492;-83
2021/08/14 06:10:36;;;;;;;;;9.75;4.75;;;;;;;;5082073;28;45250;-82
2021/08/14 06:13:01;;;;;;;;;8.75;4.75;;;;;;;;5081490;27;45508;-82
2021/08/14 06:15:26;;;;;;;;;6.00;6.00;;;;;;;;5082211;28;45296;-82
2021/08/14 06:17:53;;;;;;;;;7.00;4.75;;;;;;;;5081642;28;45253;-82
2021/08/14 06:20:18;;;;;;;;;6.00;4.50;;;;;;;;5081842;28;45434;-83
2021/08/14 06:22:43;;;;;;;;;6.00;5.00;;;;;;;;5081621;28;45576;-83
2021/08/14 06:25:09;;;;;;;;;7.25;4.75;;;;;;;;5081835;28;45424;-83
2021/08/14 06:27:35;;;;;;;;;6.75;3.50;;;;;;;;5082226;28;45341;-83
2021/08/14 06:30:00;;;;;;;;;7.00;5.00;;;;;;;;5080402;28;46218;-84
2021/08/14 06:32:25;;;;;;;;;4.00;3.50;;;;;;;;5082690;28;46310;-84
2021/08/14 06:34:50;;;;;;;;;5.00;3.67;;;;;;;;5080217;28;45211;-84
2021/08/14 06:37:16;;;;;;;;;6.67;4.00;;;;;;;;5081107;28;45546;-82
2021/08/14 06:39:41;;;;;;;;;11.33;5.33;;;;;;;;5079957;28;45308;-82
2021/08/14 06:42:07;;;;;;;;;5.75;4.75;;;;;;;;5067036;28;48239;-81
2021/08/14 06:44:33;;;;;;;;;7.00;4.00;;;;;;;;5082734;28;45381;-82
2021/08/14 06:46:59;;;;;;;;;7.25;5.00;;;;;;;;5081580;28;45157;-82
2021/08/14 06:49:24;;;;;;;;;8.00;5.50;;;;;;;;5082001;28;45133;-83
2021/08/14 06:51:49;;;;;;;;;4.00;4.00;;;;;;;;5081693;28;45444;-83
2021/08/14 06:54:14;;;;;;;;;7.00;5.00;;;;;;;;5081481;28;45386;-83
2021/08/14 06:56:39;;;;;;;;;6.33;4.67;;;;;;;;5080146;28;45215;-82
2021/08/14 06:59:05;;;;;;;;;5.00;3.00;;;;;;;;5071839;28;45204;-82
2021/08/14 07:01:30;;;;;;;;;4.00;4.00;;;;;;;;5064220;28;46659;-82
2021/08/14 07:03:55;;;;;;;;;7.00;4.00;;;;;;;;5081196;28;45523;-83
2021/08/14 07:06:21;;;;;;;;;6.00;4.67;;;;;;;;5081325;28;45447;-83
2021/08/14 07:08:47;;;;;;;;;9.75;5.00;;;;;;;;5081718;28;45297;-83
2021/08/14 07:11:13;;;;;;;;;5.25;3.00;;;;;;;;5082036;28;45735;-83
2021/08/14 07:13:38;;;;;;;;;4.25;4.25;;;;;;;;5084134;28;45224;-83
2021/08/14 07:16:03;;;;;;;;;5.33;4.33;;;;;;;;5085831;28;44828;-83
2021/08/14 07:18:29;;;;;;;;;5.50;5.00;;;;;;;;5082407;28;45376;-83
2021/08/14 07:20:56;;;;;;;;;9.00;6.50;;;;;;;;5081354;27;47438;-83
2021/08/14 07:23:21;;;;;;;;;8.00;5.00;;;;;;;;5082633;28;45384;-83
2021/08/14 07:25:46;;;;;;;;;9.00;4.00;;;;;;;;5080846;28;45151;-83
2021/08/14 07:28:11;;;;;;;;;5.67;4.00;;;;;;;;5081422;28;45368;-83
2021/08/14 07:30:36;;;;;;;;;7.33;5.33;;;;;;;;5079669;28;47353;-83
2021/08/14 07:33:02;;;;;;;;;5.50;5.00;;;;;;;;5080553;28;45283;-83
2021/08/14 07:35:27;;;;;;;;;9.50;5.25;;;;;;;;5081721;28;45367;-83
2021/08/14 07:37:52;;;;;;;;;10.50;5.00;;;;;;;;5080553;28;45191;-83
2021/08/14 07:40:18;;;;;;;;;9.75;7.75;;;;;;;;5080487;28;45489;-82
2021/08/14 07:42:44;;;;;;;;;10.75;5.00;;;;;;;;5080601;28;45442;-83
2021/08/14 07:45:10;;;;;;;;;5.00;5.00;;;;;;;;5080719;28;45589;-84
2021/08/14 07:47:35;;;;;;;;;6.75;3.50;;;;;;;;5079187;28;45472;-84
2021/08/14 07:50:00;;;;;;;;;8.67;5.00;;;;;;;;5078899;28;47235;-85
2021/08/14 07:52:25;;;;;;;;;5.67;5.00;;;;;;;;5080520;28;45413;-85
2021/08/14 07:54:51;;;;;;;;;7.00;4.67;;;;;;;;5079945;28;45394;-86
2021/08/14 07:57:16;;;;;;;;;5.67;4.00;;;;;;;;5081603;28;45558;-86
2021/08/14 07:59:41;;;;;;;;;4.00;4.00;;;;;;;;5083060;28;45308;-85
2021/08/14 08:02:06;;;;;;;;;5.33;1.67;;;;;;;;5079062;28;45309;-84
2021/08/14 08:04:31;;;;;;;;;7.00;4.33;;;;;;;;5080332;28;45444;-85
2021/08/14 08:06:57;;;;;;;;;3.00;3.00;;;;;;;;5080522;28;45512;-85
2021/08/14 08:09:22;;;;;;;;;5.00;3.67;;;;;;;;5080024;28;46226;-85
2021/08/14 08:11:47;;;;;;;;;9.00;3.75;;;;;;;;5080301;27;45298;-85
2021/08/14 08:14:12;;;;;;;;;3.00;3.00;;;;;;;;5080179;28;45501;-85
2021/08/14 08:16:38;;;;;;;;;5.50;4.00;;;;;;;;5080650;28;45338;-85
2021/08/14 08:19:03;;;;;;;;;3.25;1.25;;;;;;;;5082536;28;45379;-85
2021/08/14 08:21:28;;;;;;;;;5.33;4.00;;;;;;;;5083885;28;45440;-85
2021/08/14 08:23:53;;;;;;;;;4.33;3.00;;;;;;;;5081131;28;45567;-85
2021/08/14 08:26:18;;;;;;;;;3.00;3.00;;;;;;;;5080219;28;45385;-85
2021/08/14 08:28:44;;;;;;;;;4.67;4.00;;;;;;;;5078656;28;47639;-86
2021/08/14 08:31:09;;;;;;;;;3.00;3.00;;;;;;;;5078341;28;45296;-86
2021/08/14 08:33:34;;;;;;;;;6.00;3.33;;;;;;;;5080285;28;45548;-86
2021/08/14 08:35:59;;;;;;;;;5.00;3.33;;;;;;;;5079774;28;45397;-86
2021/08/14 08:38:26;;;;;;;;;3.67;3.67;;;;;;;;5079743;28;46271;-86
2021/08/14 08:40:52;;;;;;;;;2.50;2.50;;;;;;;;5079818;28;45233;-86
2021/08/14 08:43:17;;;;;;;;;4.00;3.00;;;;;;;;5080293;28;45215;-86
2021/08/14 08:45:44;;;;;;;;;4.00;3.33;;;;;;;;5080035;28;45207;-86
2021/08/14 08:48:10;;;;;;;;;5.00;3.00;;;;;;;;5078171;28;47572;-87
2021/08/14 08:50:36;;;;;;;;;4.00;3.00;;;;;;;;5079657;28;45476;-87
2021/08/14 08:53:04;;;;;;;;;3.75;3.00;;;;;;;;5079807;28;45271;-87
2021/08/14 08:55:31;;;;;;;;;5.00;3.00;;;;;;;;5078124;28;45457;-87
2021/08/14 08:57:57;;;;;;;;;4.75;4.75;;;;;;;;5079337;28;45395;-86
2021/08/14 09:00:23;;;;;;;;;6.00;4.00;;;;;;;;5080032;28;45255;-87
2021/08/14 09:03:04;;;;;;;;;4.00;2.67;;;;;;;;5082776;28;45160;-87
2021/08/14 09:05:30;;;;;;;;;10.50;4.50;;;;;;;;5085582;28;45393;-87
2021/08/14 09:08:08;;;;;;;;;6.00;2.75;;;;;;;;5087037;28;45295;-87
2021/08/14 09:10:34;;;;;;;;;6.25;4.00;;;;;;;;5083241;28;45362;-88
2021/08/14 09:13:08;;;;;;;;;4.75;4.00;;;;;;;;5083054;28;45462;-87
2021/08/14 09:15:33;;;;;;;;;5.50;3.75;;;;;;;;5083152;28;45272;-87
2021/08/14 09:18:00;;;;;;;;;2.75;1.75;;;;;;;;5082649;28;45293;-87
2021/08/14 09:20:25;;;;;;;;;3.50;3.00;;;;;;;;5083226;28;45363;-87
2021/08/14 09:23:01;;;;;;;;;8.75;4.00;;;;;;;;5083028;28;45491;-87
2021/08/14 09:25:36;;;;;;;;;4.25;2.75;;;;;;;;5084340;28;45393;-87
2021/08/14 09:28:01;;;;;;;;;3.00;3.00;;;;;;;;5081597;28;47365;-87
2021/08/14 09:30:43;;;;;;;;;5.25;4.50;;;;;;;;5081048;28;45661;-87
2021/08/14 09:33:09;;;;;;;;;4.50;3.25;;;;;;;;5081525;28;45377;-87
2021/08/14 09:35:34;;;;;;;;;4.75;4.25;;;;;;;;5082543;28;45265;-88
2021/08/14 09:38:07;;;;;;;;;4.25;3.50;;;;;;;;5081128;28;47980;-88
2021/08/14 09:40:39;;;;;;;;;5.00;4.50;;;;;;;;5082210;28;45424;-88
2021/08/14 09:43:05;;;;;;;;;1.75;1.75;;;;;;;;5070499;28;45447;-87
2021/08/14 09:45:30;;;;;;;;;4.50;3.75;;;;;;;;5080111;28;45294;-87
2021/08/14 09:47:55;;;;;;;;;5.00;3.75;;;;;;;;5069979;28;46975;-87
2021/08/14 09:50:34;;;;;;;;;4.25;4.25;;;;;;;;5079701;28;45143;-87
2021/08/14 09:53:32;;;;;;;;;3.50;3.50;;;;;;;;5084579;28;45270;-87
2021/08/14 09:56:04;;;;;;;;;4.25;3.25;;;;;;;;5045740;28;45386;-88
2021/08/14 09:58:30;;;;;;;;;3.75;3.75;;;;;;;;5069328;28;45594;-88
2021/08/14 10:00:58;;;;;;;;;4.00;4.00;;;;;;;;5097027;28;44933;-88
2021/08/14 10:03:23;;;;;;;;;5.25;4.00;;;;;;;;5100466;28;44727;-88
2021/08/14 10:05:48;;;;;;;;;6.75;5.00;;;;;;;;5089068;28;45404;-88
2021/08/14 10:08:14;;;;;;;;;4.00;3.25;;;;;;;;5078222;28;45314;-88
2021/08/14 10:10:39;;;;;;;;;5.00;3.50;;;;;;;;5061532;28;45295;-88
2021/08/14 10:13:05;;;;;;;;;6.75;4.25;;;;;;;;5066721;28;45260;-88
2021/08/14 10:15:30;;;;;;;;;7.00;5.00;;;;;;;;5082072;28;45404;-88
2021/08/14 10:17:56;;;;;;;;;4.75;3.75;;;;;;;;5081386;28;45620;-88
2021/08/14 10:20:25;;;;;;;;;5.00;4.00;;;;;;;;5081912;28;45195;-88
2021/08/14 10:23:00;;;;;;;;;8.00;5.25;;;;;;;;5081531;28;45452;-88
2021/08/14 10:25:26;;;;;;;;;8.25;5.50;;;;;;;;5081584;28;45295;-88
2021/08/14 10:27:58;;;;;;;;;5.75;5.75;;;;;;;;5081328;28;45986;-88
2021/08/14 10:30:41;;;;;;;;;5.00;3.75;;;;;;;;5081305;28;45382;-88
2021/08/14 10:33:07;;;;;;;;;4.25;3.25;;;;;;;;5080466;28;45461;-88
2021/08/14 10:35:34;;;;;;;;;5.00;5.00;;;;;;;;5080185;28;45334;-88
2021/08/14 10:37:59;;;;;;;;;3.75;3.75;;;;;;;;5080055;28;46015;-88
2021/08/14 10:40:24;;;;;;;;;4.75;4.25;;;;;;;;5084058;28;45248;-88
2021/08/14 10:42:49;;;;;;;;;7.00;4.50;;;;;;;;5084479;28;45285;-87
2021/08/14 10:45:16;;;;;;;;;5.50;5.00;;;;;;;;5081387;28;45224;-88
2021/08/14 10:47:43;;;;;;;;;6.25;5.00;;;;;;;;5081292;28;45442;-88
2021/08/14 10:50:09;;;;;;;;;4.75;4.25;;;;;;;;5081357;28;45573;-87
2021/08/14 10:52:35;;;;;;;;;6.25;5.75;;;;;;;;5080279;28;45351;-88
2021/08/14 10:55:03;;;;;;;;;4.50;4.00;;;;;;;;5081068;28;45297;-87
2021/08/14 10:57:37;;;;;;;;;8.00;5.00;;;;;;;;5080971;28;45525;-87
2021/08/14 11:00:04;;;;;;;;;4.25;4.25;;;;;;;;5081253;28;45445;-87
2021/08/14 11:02:29;;;;;;;;;5.00;4.50;;;;;;;;5080049;28;45388;-87
2021/08/14 11:04:55;;;;;;;;;6.00;4.00;;;;;;;;5063997;28;45387;-87
2021/08/14 11:07:21;;;;;;;;;7.00;6.00;;;;;;;;5061029;28;45548;-87
2021/08/14 11:09:49;;;;;;;;;6.75;4.00;;;;;;;;5060526;28;45291;-87
2021/08/14 11:12:30;;;;;;;;;4.75;4.75;;;;;;;;5059891;28;45445;-86
2021/08/14 11:15:12;;;;;;;;;6.25;4.75;;;;;;;;5080986;28;45497;-87
2021/08/14 11:17:37;;;;;;;;;6.50;5.75;;;;;;;;5080896;28;46195;-86
2021/08/14 11:20:03;;;;;;;;;7.67;5.33;;;;;;;;5081561;28;45174;-86
2021/08/14 11:22:31;;;;;;;;;4.75;3.75;;;;;;;;5081248;28;45233;-87
2021/08/14 11:24:58;;;;;;;;;6.00;6.00;;;;;;;;5082609;28;45475;-86
2021/08/14 11:27:25;;;;;;;;;7.00;6.50;;;;;;;;5084144;28;45424;-86
2021/08/14 11:29:55;;;;;;;;;5.50;4.75;;;;;;;;5083943;28;45253;-86
2021/08/14 11:32:20;;;;;;;;;5.75;5.75;;;;;;;;5081815;28;45188;-86
2021/08/14 11:34:48;;;;;;;;;5.25;5.25;;;;;;;;5079806;28;45377;-86
2021/08/14 11:37:13;;;;;;;;;7.25;7.00;;;;;;;;5080470;28;46222;-86
2021/08/14 11:39:38;;;;;;;;;8.67;4.67;;;;;;;;5081011;28;45344;-86
2021/08/14 11:42:04;;;;;;;;;10.50;7.00;;;;;;;;5079435;28;45479;-86
2021/08/14 11:44:31;;;;;;;;;7.00;5.75;;;;;;;;5079675;28;45421;-86
2021/08/14 11:47:00;;;;;;;;;6.75;5.25;;;;;;;;5079460;28;46162;-86
2021/08/14 11:49:44;;;;;;;;;6.75;6.75;;;;;;;;5083147;28;44860;-85
2021/08/14 11:52:30;;;;;;;;;7.50;5.00;;;;;;;;5091647;28;44852;-86
2021/08/14 11:55:01;;;;;;;;;7.00;7.00;;;;;;;;5079131;28;45519;-86
2021/08/14 11:57:31;;;;;;;;;6.75;6.00;;;;;;;;5091225;28;45094;-86
2021/08/14 11:59:58;;;;;;;;;7.00;7.00;;;;;;;;5087141;28;45462;-85
2021/08/14 12:02:27;;;;;;;;;8.50;7.00;;;;;;;;5086494;28;45359;-84
2021/08/14 12:04:53;;;;;;;;;6.50;6.50;;;;;;;;5070576;28;45476;-86
2021/08/14 12:07:18;;;;;;;;;8.25;6.00;;;;;;;;5081434;28;48400;-85
2021/08/14 12:09:44;;;;;;;;;8.25;6.75;;;;;;;;5083619;28;45185;-86
2021/08/14 12:12:15;;;;;;;;;6.00;5.75;;;;;;;;5084642;28;45172;-86
2021/08/14 12:14:42;;;;;;;;;6.25;6.25;;;;;;;;5088041;28;45233;-86
2021/08/14 12:17:07;;;;;;;;;8.75;7.50;;;;;;;;5079743;28;46175;-86
2021/08/14 12:19:34;;;;;;;;;7.50;6.00;;;;;;;;5079906;28;45160;-86
2021/08/14 12:22:08;;;;;;;;;9.00;6.75;;;;;;;;5080184;28;45168;-86
2021/08/14 12:24:33;;;;;;;;;10.25;6.75;;;;;;;;5079713;28;45509;-86
2021/08/14 12:26:58;;;;;;;;;7.50;7.50;;;;;;;;5080228;28;46504;-85
2021/08/14 12:29:23;;;;;;;;;5.75;5.75;;;;;;;;5079607;28;45299;-86
2021/08/14 12:31:50;;;;;;;;;6.00;6.00;;;;;;;;5080724;28;45285;-86
2021/08/14 12:34:29;;;;;;;;;7.75;5.75;;;;;;;;5079281;28;45489;-86
2021/08/14 12:37:06;;;;;;;;;6.00;6.00;;;;;;;;5080476;28;47490;-86
2021/08/14 12:39:57;;;;;;;;;7.25;6.75;;;;;;;;5082868;28;45251;-86
2021/08/14 12:42:25;;;;;;;;;8.50;7.00;;;;;;;;5087316;28;45341;-86
2021/08/14 12:44:50;;;;;;;;;7.00;5.25;;;;;;;;5072696;28;45453;-86
2021/08/14 12:47:25;;;;;;;;;7.00;5.25;;;;;;;;5063718;28;46303;-86
2021/08/14 12:50:09;;;;;;;;;11.50;7.50;;;;;;;;5065050;28;45280;-86
2021/08/14 12:52:35;;;;;;;;;5.50;5.50;;;;;;;;5074340;28;45329;-86
2021/08/14 12:55:00;;;;;;;;;7.67;6.00;;;;;;;;5083630;28;45458;-85
2021/08/14 12:57:25;;;;;;;;;11.25;6.75;;;;;;;;5082618;28;47997;-85
2021/08/14 12:59:50;;;;;;;;;6.67;6.67;;;;;;;;5084937;28;45302;-85
2021/08/14 13:02:16;;;;;;;;;6.67;6.67;;;;;;;;5084274;28;45230;-86
2021/08/14 13:04:41;;;;;;;;;8.25;5.75;;;;;;;;5082348;28;45653;-86
2021/08/14 13:07:07;;;;;;;;;5.75;5.75;;;;;;;;5083858;28;45219;-85
2021/08/14 13:09:32;;;;;;;;;12.00;7.00;;;;;;;;5083810;28;45226;-85
2021/08/14 13:11:58;;;;;;;;;9.00;8.25;;;;;;;;5083409;27;45461;-85
2021/08/14 13:14:24;;;;;;;;;9.75;7.75;;;;;;;;5081729;28;45490;-86
2021/08/14 13:16:50;;;;;;;;;6.00;6.00;;;;;;;;5081631;28;48243;-86
2021/08/14 13:19:15;;;;;;;;;10.00;7.00;;;;;;;;5083109;28;45234;-85
2021/08/14 13:21:40;;;;;;;;;8.00;8.00;;;;;;;;5084491;28;45186;-86
2021/08/14 13:24:06;;;;;;;;;5.75;5.00;;;;;;;;5084576;28;45564;-86
2021/08/14 13:26:32;;;;;;;;;7.00;4.75;;;;;;;;5084739;28;45474;-85
2021/08/14 13:28:57;;;;;;;;;8.50;7.00;;;;;;;;5085415;28;45392;-86
2021/08/14 13:31:22;;;;;;;;;8.00;7.25;;;;;;;;5078961;28;45368;-85
2021/08/14 13:33:47;;;;;;;;;8.00;8.00;;;;;;;;5081137;28;45300;-86
2021/08/14 13:36:13;;;;;;;;;6.50;5.50;;;;;;;;5086048;28;47299;-85
2021/08/14 13:38:38;;;;;;;;;12.33;6.33;;;;;;;;5087052;28;45420;-85
2021/08/14 13:41:03;;;;;;;;;5.33;5.33;;;;;;;;5086066;28;45411;-85
2021/08/14 13:43:29;;;;;;;;;7.50;6.00;;;;;;;;5081900;28;45402;-85
2021/08/14 13:45:54;;;;;;;;;10.00;8.00;;;;;;;;5065593;28;46372;-85
2021/08/14 13:48:19;;;;;;;;;8.33;6.33;;;;;;;;5061303;28;45347;-85
2021/08/14 13:50:44;;;;;;;;;9.00;7.00;;;;;;;;5062364;28;45329;-85
2021/08/14 13:53:09;;;;;;;;;10.67;8.00;;;;;;;;5060631;28;45496;-86
2021/08/14 13:55:35;;;;;;;;;7.00;5.67;;;;;;;;5064337;28;46065;-86
2021/08/14 13:58:00;;;;;;;;;7.75;6.75;;;;;;;;5081958;27;45400;-85
2021/08/14 14:00:26;;;;;;;;;4.50;4.00;;;;;;;;5082507;28;45400;-85
2021/08/14 14:02:51;;;;;;;;;6.25;5.50;;;;;;;;5080739;28;45330;-85
2021/08/14 14:05:16;;;;;;;;;7.33;6.00;;;;;;;;5082057;28;46431;-86
2021/08/14 14:07:44;;;;;;;;;8.00;7.67;;;;;;;;5081892;28;45455;-85
2021/08/14 14:10:10;;;;;;;;;8.25;6.50;;;;;;;;5081995;28;45271;-85
2021/08/14 14:12:36;;;;;;;;;10.50;7.00;;;;;;;;5081952;28;45206;-85
2021/08/14 14:15:01;;;;;;;;;6.25;6.25;;;;;;;;5080667;28;47444;-85
2021/08/14 14:17:26;;;;;;;;;8.50;7.00;;;;;;;;5081597;28;45396;-85
2021/08/14 14:19:51;;;;;;;;;9.00;6.75;;;;;;;;5080751;28;45327;-85
2021/08/14 14:22:17;;;;;;;;;7.33;7.33;;;;;;;;5082119;28;45373;-85
2021/08/14 14:24:42;;;;;;;;;7.00;7.00;;;;;;;;5081310;28;45627;-85
2021/08/14 14:27:07;;;;;;;;;7.00;6.75;;;;;;;;5081776;28;45274;-85
2021/08/14 14:29:33;;;;;;;;;7.50;5.50;;;;;;;;5080625;28;45761;-85
2021/08/14 14:31:59;;;;;;;;;12.00;7.75;;;;;;;;5083448;28;45364;-86
2021/08/14 14:34:24;;;;;;;;;6.25;5.75;;;;;;;;5083991;28;45997;-86
2021/08/14 14:36:49;;;;;;;;;9.00;6.00;;;;;;;;5082645;28;45319;-85
2021/08/14 14:39:14;;;;;;;;;8.00;7.00;;;;;;;;5081361;28;45317;-86